Time;durP1;ratioP1;P1;durP2;ratioP2;P2;SDS_P1;SDS_P2;PMS_P1;PMS_P2;Temp;Humidity;BMP_temperature;BMP_pressure;BME280_temperature;BME280_humidity;BME280_pressure;Samples;Min_cycle;Max_cycle;Signal;HPM_P1;HPM_P2
2023/01/05 00:01:57;;;;;;;1.00;1.00;;;;;;;14.62;58.60;99187.09;7015330;28;20207;-78
2023/01/05 00:05:19;;;;;;;1.00;1.00;;;;;;;14.92;57.08;99155.50;7006076;28;20284;-78
2023/01/05 00:08:41;;;;;;;1.40;0.90;;;;;;;14.87;57.28;99172.44;7033187;28;20727;-77
2023/01/05 00:23:01;;;;;;;0.90;0.90;;;;;;;14.94;57.03;99137.94;7005063;28;20204;-76
2023/01/05 00:26:22;;;;;;;1.27;1.00;;;;;;;14.98;57.02;99155.41;7004224;28;20314;-76
2023/01/05 00:29:45;;;;;;;0.93;0.93;;;;;;;15.29;56.18;99138.16;7005088;28;20211;-76
2023/01/05 00:33:08;;;;;;;1.00;1.00;;;;;;;15.27;55.83;99138.38;7028551;28;20259;-76
2023/01/05 00:36:29;;;;;;;0.90;0.90;;;;;;;15.05;56.82;99153.44;7032153;28;20218;-76
2023/01/05 00:39:51;;;;;;;1.00;1.00;;;;;;;15.24;56.23;99157.88;7015411;28;20203;-76
2023/01/05 00:43:12;;;;;;;0.90;0.90;;;;;;;15.68;55.04;99162.19;7032245;28;20211;-76
2023/01/05 00:46:35;;;;;;;0.90;0.90;;;;;;;15.53;55.42;99145.41;7031556;28;20256;-76
2023/01/05 00:49:57;;;;;;;0.93;0.93;;;;;;;15.74;54.69;99144.94;7030238;28;20196;-76
2023/01/05 00:53:18;;;;;;;1.00;1.00;;;;;;;15.14;56.06;99145.84;7009991;28;20219;-76
2023/01/05 00:56:40;;;;;;;1.10;1.10;;;;;;;15.42;55.41;99159.75;7022563;28;20633;-76
2023/01/05 01:00:02;;;;;;;1.10;1.10;;;;;;;15.66;55.12;99169.72;7003907;28;20298;-76
2023/01/05 01:03:24;;;;;;;1.00;1.00;;;;;;;15.62;55.33;99168.53;7003704;28;20302;-76
2023/01/05 01:06:46;;;;;;;0.90;0.90;;;;;;;15.82;54.79;99178.06;7003458;28;20230;-76
2023/01/05 01:10:09;;;;;;;0.80;0.80;;;;;;;15.00;56.49;99161.47;7025882;28;20215;-76
2023/01/05 01:13:30;;;;;;;1.10;1.00;;;;;;;15.47;55.78;99168.91;7031490;28;20292;-76
2023/01/05 01:16:52;;;;;;;1.00;1.00;;;;;;;15.19;56.76;99157.72;7030939;28;20719;-76
2023/01/05 01:20:15;;;;;;;0.90;0.90;;;;;;;15.39;56.43;99152.91;7031389;28;20344;-76
2023/01/05 01:23:37;;;;;;;1.00;1.00;;;;;;;15.48;55.48;99108.06;7027509;28;20211;-76
2023/01/05 01:26:58;;;;;;;1.07;1.07;;;;;;;15.60;55.88;99162.47;7021123;28;20244;-76
2023/01/05 01:30:20;;;;;;;1.13;1.10;;;;;;;15.68;55.72;99164.91;7026523;28;20306;-76
2023/01/05 01:33:41;;;;;;;1.00;1.00;;;;;;;15.64;55.51;99150.91;7016706;28;20263;-76
2023/01/05 01:37:04;;;;;;;1.77;1.67;;;;;;;15.95;54.76;99156.16;7029835;28;20251;-75
2023/01/05 01:40:26;;;;;;;0.90;0.90;;;;;;;15.50;55.88;99157.56;7025953;28;20206;-76
2023/01/05 01:43:49;;;;;;;0.90;0.90;;;;;;;15.37;56.34;99154.19;7030507;28;20264;-76
2023/01/05 01:47:14;;;;;;;1.10;1.10;;;;;;;15.96;54.93;99137.91;7029300;28;20226;-76
2023/01/05 01:50:38;;;;;;;0.97;0.97;;;;;;;15.56;55.86;99144.94;7030204;28;20372;-76
2023/01/05 01:54:03;;;;;;;1.40;1.40;;;;;;;15.52;55.95;99144.56;7029329;28;20262;-76
2023/01/05 01:57:26;;;;;;;0.90;0.90;;;;;;;15.73;55.60;99148.69;7029955;28;20244;-76
2023/01/05 02:00:48;;;;;;;0.90;0.90;;;;;;;15.29;56.76;99157.19;7028882;28;20728;-76
2023/01/05 02:04:10;;;;;;;0.90;0.90;;;;;;;15.76;55.73;99140.91;7027868;28;20255;-76
2023/01/05 02:07:33;;;;;;;0.80;0.80;;;;;;;15.61;55.68;99147.81;7030174;28;20210;-76
2023/01/05 02:11:05;;;;;;;1.00;1.00;;;;;;;15.18;57.70;99157.94;7020169;28;20228;-75
2023/01/05 02:14:34;;;;;;;1.00;1.00;;;;;;;15.65;56.23;99152.59;7029221;28;20231;-77
2023/01/05 02:18:04;;;;;;;0.93;0.93;;;;;;;15.62;56.39;99144.06;7011880;28;20191;-76
2023/01/05 02:21:33;;;;;;;1.20;1.10;;;;;;;15.66;55.81;99142.53;7021300;28;20202;-76
2023/01/05 02:25:06;;;;;;;0.90;0.90;;;;;;;15.76;55.70;99138.19;7028980;28;20316;-76
2023/01/05 02:28:43;;;;;;;1.27;1.20;;;;;;;15.46;56.67;99122.94;7026343;28;20218;-76
2023/01/05 02:32:11;;;;;;;0.87;0.87;;;;;;;15.24;57.47;99130.69;7029405;28;20234;-76
2023/01/05 02:35:35;;;;;;;0.90;0.90;;;;;;;15.20;57.57;99118.63;7028898;28;20245;-76
2023/01/05 02:39:00;;;;;;;0.93;0.93;;;;;;;15.06;58.29;99099.97;7029688;28;20254;-76
2023/01/05 02:42:23;;;;;;;0.90;0.90;;;;;;;15.41;57.45;99098.34;7022722;28;20203;-76
2023/01/05 02:45:45;;;;;;;1.20;0.83;;;;;;;15.51;56.87;99094.00;7000915;28;20284;-76
2023/01/05 02:49:08;;;;;;;0.90;0.90;;;;;;;15.93;56.04;99106.56;7001549;28;20283;-76
2023/01/05 02:52:36;;;;;;;1.10;1.10;;;;;;;16.02;55.67;99102.47;7029306;28;20292;-77
2023/01/05 02:56:01;;;;;;;0.93;0.90;;;;;;;15.59;56.71;99080.13;7028846;28;20274;-76
2023/01/05 02:59:26;;;;;;;1.00;1.00;;;;;;;15.61;56.90;99112.47;7028809;28;20210;-76
2023/01/05 03:02:49;;;;;;;0.80;0.80;;;;;;;15.29;57.82;99097.41;7025398;28;20277;-76
2023/01/05 03:06:13;;;;;;;0.90;0.90;;;;;;;15.15;58.51;99106.78;7028482;28;20229;-76
2023/01/05 03:09:37;;;;;;;0.97;0.97;;;;;;;15.61;57.34;99109.75;7025965;28;20348;-75
2023/01/05 03:16:39;;;;;;;0.80;0.80;;;;;;;15.05;58.48;99107.28;7019597;28;20222;-76
2023/01/05 03:20:02;;;;;;;0.90;0.90;;;;;;;15.93;56.52;99092.97;7007310;28;20210;-77
2023/01/05 03:38:19;;;;;;;0.80;0.80;;;;;;;15.60;57.85;99108.94;7000883;28;20633;-76
2023/01/05 03:41:42;;;;;;;0.80;0.80;;;;;;;15.25;58.74;99105.19;7025181;28;20344;-76
2023/01/05 03:45:05;;;;;;;0.80;0.80;;;;;;;15.63;57.32;99072.31;7026798;28;20222;-76
2023/01/05 03:48:28;;;;;;;0.80;0.80;;;;;;;15.77;57.10;99093.66;7029042;28;20296;-77
2023/01/05 03:51:49;;;;;;;0.67;0.67;;;;;;;15.38;58.87;99107.78;7028862;28;20292;-76
2023/01/05 03:55:11;;;;;;;0.70;0.70;;;;;;;15.43;58.27;99097.06;7020052;28;20238;-75
2023/01/05 03:58:34;;;;;;;0.97;0.97;;;;;;;15.49;58.86;99103.44;7024139;28;20208;-76
2023/01/05 04:01:55;;;;;;;0.83;0.83;;;;;;;15.66;58.40;99102.59;7024788;28;20277;-76
2023/01/05 04:05:17;;;;;;;0.80;0.80;;;;;;;15.94;57.56;99086.50;7027883;28;20234;-77
2023/01/05 04:08:39;;;;;;;0.90;0.90;;;;;;;15.56;58.58;99105.03;7028623;28;20206;-77
2023/01/05 04:12:00;;;;;;;0.90;0.90;;;;;;;16.04;57.50;99099.53;7021779;28;20229;-76
2023/01/05 04:15:23;;;;;;;0.80;0.80;;;;;;;15.90;57.81;99093.47;7001101;28;20232;-77
2023/01/05 04:18:45;;;;;;;0.90;0.90;;;;;;;15.90;58.04;99089.91;7023861;28;20299;-76
2023/01/05 04:22:07;;;;;;;1.00;1.00;;;;;;;15.45;59.88;99094.09;7033753;28;20285;-76
2023/01/05 04:25:28;;;;;;;1.23;1.23;;;;;;;15.49;59.90;99098.84;7032527;28;20286;-76
2023/01/05 04:28:49;;;;;;;1.60;1.43;;;;;;;15.76;59.20;99096.59;7032276;28;20275;-76
2023/01/05 04:32:12;;;;;;;1.50;1.40;;;;;;;15.69;59.53;99099.41;7031249;28;20234;-76
2023/01/05 04:35:34;;;;;;;1.40;1.30;;;;;;;15.38;60.57;99096.91;7032291;28;20287;-77
2023/01/05 04:38:55;;;;;;;1.20;1.20;;;;;;;15.76;60.10;99085.72;7031090;28;20662;-78
2023/01/05 04:42:17;;;;;;;1.03;1.03;;;;;;;15.45;60.05;99097.63;7004336;28;20275;-76
2023/01/05 04:45:39;;;;;;;1.10;1.10;;;;;;;15.46;60.00;99093.03;7030097;28;20226;-76
2023/01/05 04:49:02;;;;;;;1.00;1.00;;;;;;;15.59;59.79;99096.44;7030814;28;20206;-77
2023/01/05 04:52:23;;;;;;;1.00;1.00;;;;;;;15.26;60.16;99071.53;7031929;28;20280;-77
2023/01/05 04:55:45;;;;;;;1.07;0.93;;;;;;;15.54;60.06;99082.69;7019369;28;20288;-76
2023/01/05 04:59:06;;;;;;;1.00;1.00;;;;;;;15.57;60.16;99098.53;7004714;28;20294;-77
2023/01/05 05:02:28;;;;;;;0.93;0.93;;;;;;;15.37;60.95;99083.53;7006612;28;20822;-76
2023/01/05 05:05:51;;;;;;;0.97;0.93;;;;;;;15.67;60.17;99093.38;7030990;28;20722;-76
2023/01/05 05:09:12;;;;;;;1.00;1.00;;;;;;;15.44;60.26;99098.69;7029671;28;20203;-76
2023/01/05 05:12:34;;;;;;;0.90;0.90;;;;;;;15.82;59.49;99101.91;7007701;28;20224;-76
2023/01/05 05:15:55;;;;;;;1.17;1.17;;;;;;;15.60;60.24;99099.94;7000717;28;20241;-76
2023/01/05 05:19:16;;;;;;;1.03;1.03;;;;;;;15.61;60.85;99109.75;7010599;28;20225;-76
2023/01/05 05:22:39;;;;;;;1.10;1.10;;;;;;;15.73;61.08;99126.94;7010500;28;20343;-76
2023/01/05 05:26:01;;;;;;;1.10;1.10;;;;;;;16.00;60.50;99131.81;7029837;28;20225;-76
2023/01/05 05:29:22;;;;;;;1.00;1.00;;;;;;;15.82;61.34;99141.91;7029972;28;20288;-76
2023/01/05 05:32:44;;;;;;;1.10;1.10;;;;;;;15.82;61.51;99136.47;7026324;28;20597;-76
2023/01/05 05:36:06;;;;;;;1.63;1.20;;;;;;;15.96;61.35;99156.97;7002479;28;20280;-76
2023/01/05 05:39:29;;;;;;;1.47;1.37;;;;;;;16.08;60.82;99152.38;7004083;28;20215;-76
2023/01/05 05:42:50;;;;;;;1.37;1.27;;;;;;;16.10;61.01;99155.72;7003179;28;20860;-76
2023/01/05 05:46:12;;;;;;;1.20;1.20;;;;;;;16.02;61.57;99175.06;7001499;28;20232;-76
2023/01/05 05:49:33;;;;;;;1.53;1.10;;;;;;;15.83;61.67;99166.16;7002658;28;20210;-76
2023/01/05 05:52:55;;;;;;;1.40;1.40;;;;;;;15.99;61.79;99173.63;7002381;28;20238;-76
2023/01/05 05:56:18;;;;;;;1.30;1.30;;;;;;;15.80;62.54;99176.66;7001324;28;20641;-76
2023/01/05 05:59:39;;;;;;;1.60;1.50;;;;;;;15.46;63.28;99185.44;7002603;28;20248;-76
2023/01/05 06:03:01;;;;;;;1.90;1.43;;;;;;;15.16;63.62;99189.94;7031827;28;20241;-77
2023/01/05 06:06:22;;;;;;;1.67;1.57;;;;;;;15.19;63.08;99198.44;7028693;28;20318;-76
2023/01/05 06:09:44;;;;;;;1.40;1.30;;;;;;;14.49;63.18;99212.44;7029663;28;20719;-77
2023/01/05 06:13:07;;;;;;;4.30;1.60;;;;;;;14.73;62.59;99205.34;7017606;28;20330;-77
2023/01/05 06:16:28;;;;;;;2.00;1.67;;;;;;;15.27;60.75;99219.06;7024317;28;20319;-77
2023/01/05 06:19:50;;;;;;;1.87;1.43;;;;;;;15.27;60.27;99210.91;7029064;28;20214;-76
2023/01/05 06:23:11;;;;;;;5.40;1.77;;;;;;;14.97;60.07;99226.22;7020941;28;20344;-77
2023/01/05 06:26:33;;;;;;;5.17;1.80;;;;;;;14.87;60.22;99232.16;7028644;28;20685;-77
2023/01/05 06:29:55;;;;;;;4.37;1.70;;;;;;;14.80;60.18;99217.81;7028604;28;20233;-76
2023/01/05 06:33:17;;;;;;;3.53;1.83;;;;;;;14.66;60.44;99220.88;7025807;28;20683;-76
2023/01/05 06:36:38;;;;;;;4.03;1.80;;;;;;;14.69;59.79;99239.44;7028251;28;20229;-77
2023/01/05 06:40:00;;;;;;;4.43;1.90;;;;;;;14.48;60.98;99248.78;7010640;28;20212;-77
2023/01/05 06:43:21;;;;;;;2.93;1.60;;;;;;;14.45;61.97;99273.63;7003557;28;20253;-77
2023/01/05 06:46:44;;;;;;;3.43;1.83;;;;;;;14.75;61.10;99280.09;7017070;28;20221;-76
2023/01/05 06:50:07;;;;;;;4.17;2.50;;;;;;;15.01;61.09;99271.75;7028807;28;20210;-77
2023/01/05 06:53:28;;;;;;;2.27;1.90;;;;;;;14.76;62.82;99295.31;7012639;28;20366;-77
2023/01/05 06:56:50;;;;;;;2.70;1.80;;;;;;;14.78;62.59;99278.81;7026981;28;20275;-76
2023/01/05 07:00:12;;;;;;;4.27;2.30;;;;;;;14.87;62.57;99291.09;7019919;28;20256;-76
2023/01/05 07:03:35;;;;;;;5.40;2.00;;;;;;;15.01;62.23;99277.19;7022663;28;20280;-76
2023/01/05 07:06:57;;;;;;;3.13;1.77;;;;;;;14.60;64.30;99295.03;7027688;28;20308;-77
2023/01/05 07:10:18;;;;;;;3.23;2.07;;;;;;;14.85;63.34;99293.16;7020639;28;20226;-77
2023/01/05 07:13:40;;;;;;;5.13;2.40;;;;;;;14.96;64.01;99312.31;7015074;28;20547;-77
2023/01/05 07:17:01;;;;;;;4.60;2.10;;;;;;;14.56;64.67;99308.19;7037893;28;20309;-77
2023/01/05 07:20:24;;;;;;;3.67;2.10;;;;;;;14.64;64.21;99309.84;7040819;28;20258;-77
2023/01/05 07:23:46;;;;;;;2.93;2.10;;;;;;;14.68;64.32;99311.88;7025411;28;20210;-76
2023/01/05 07:27:07;;;;;;;6.47;1.97;;;;;;;14.62;64.79;99315.47;7018810;28;20251;-79
2023/01/05 07:30:29;;;;;;;5.50;2.40;;;;;;;14.78;64.51;99314.94;7024663;28;20206;-76
2023/01/05 07:33:50;;;;;;;4.77;2.10;;;;;;;14.72;64.30;99320.41;7028489;28;20286;-77
2023/01/05 07:37:14;;;;;;;6.10;2.17;;;;;;;15.15;63.18;99324.09;7014890;28;20273;-77
2023/01/05 07:40:36;;;;;;;4.57;2.00;;;;;;;14.84;63.89;99322.22;7025586;28;20202;-75
2023/01/05 07:43:57;;;;;;;3.97;2.90;;;;;;;15.21;62.68;99324.00;7029823;28;20209;-77
2023/01/05 07:47:19;;;;;;;2.60;2.40;;;;;;;14.98;63.12;99312.91;7020972;28;20663;-77
2023/01/05 07:50:40;;;;;;;6.20;2.60;;;;;;;15.42;61.63;99306.50;7031975;28;20726;-78
2023/01/05 07:54:03;;;;;;;5.47;3.40;;;;;;;15.77;60.83;99330.19;7035136;28;20255;-76
2023/01/05 07:57:24;;;;;;;2.93;2.13;;;;;;;15.33;61.82;99327.69;7035231;28;20347;-77
2023/01/05 08:00:46;;;;;;;3.00;2.47;;;;;;;15.44;61.35;99339.72;7016571;28;20206;-80
2023/01/05 08:04:09;;;;;;;5.83;2.40;;;;;;;15.52;60.61;99320.41;7035888;28;20296;-77
2023/01/05 08:07:30;;;;;;;6.40;2.63;;;;;;;15.40;60.93;99331.16;7034753;28;20268;-78
2023/01/05 08:10:53;;;;;;;5.97;2.10;;;;;;;15.13;60.95;99327.00;7031236;28;20207;-78
2023/01/05 08:14:15;;;;;;;4.87;2.20;;;;;;;15.31;61.21;99346.09;7023531;28;20238;-78
2023/01/05 08:17:39;;;;;;;7.73;2.80;;;;;;;15.47;60.81;99351.00;7007958;28;20604;-78
2023/01/05 08:21:03;;;;;;;4.23;2.70;;;;;;;15.16;61.38;99351.00;7033624;28;20561;-77
2023/01/05 08:24:24;;;;;;;5.77;2.40;;;;;;;15.07;60.92;99349.63;7021643;28;20259;-76
2023/01/05 08:27:47;;;;;;;3.50;2.10;;;;;;;14.98;60.74;99367.22;7030645;28;20225;-77
2023/01/05 08:31:13;;;;;;;5.37;2.60;;;;;;;14.76;59.67;99346.09;7026877;28;20568;-78
2023/01/05 08:34:34;;;;;;;8.53;2.67;;;;;;;15.06;58.83;99364.25;7031524;28;20280;-77
2023/01/05 08:37:56;;;;;;;4.20;2.07;;;;;;;14.87;57.94;99372.53;7022027;28;20788;-77
2023/01/05 08:41:19;;;;;;;7.57;2.47;;;;;;;15.12;57.31;99362.53;7032493;28;20218;-77
2023/01/05 08:44:42;;;;;;;6.07;2.40;;;;;;;14.74;57.16;99359.06;7018039;28;20305;-78
2023/01/05 08:48:03;;;;;;;6.80;2.70;;;;;;;14.91;57.23;99385.44;7033869;28;20677;-78
2023/01/05 08:51:25;;;;;;;4.60;2.40;;;;;;;15.02;56.67;99362.19;7032512;28;20392;-77
2023/01/05 08:54:46;;;;;;;6.33;2.70;;;;;;;15.11;57.23;99374.47;7019945;28;20234;-77
2023/01/05 08:58:08;;;;;;;4.77;2.00;;;;;;;15.34;57.23;99391.84;7016017;28;20538;-77
2023/01/05 09:01:30;;;;;;;11.17;2.40;;;;;;;15.19;57.41;99399.47;7032700;28;20309;-78
2023/01/05 09:04:53;;;;;;;7.23;2.53;;;;;;;15.49;56.63;99397.78;7031733;28;20255;-78
2023/01/05 09:08:15;;;;;;;5.90;2.27;;;;;;;15.52;56.67;99401.97;7028549;28;20211;-78
2023/01/05 09:11:36;;;;;;;5.53;2.20;;;;;;;15.40;56.61;99404.53;7032474;28;20304;-77
2023/01/05 09:14:58;;;;;;;4.00;2.20;;;;;;;15.29;56.03;99412.56;7032527;28;20723;-78
2023/01/05 09:18:21;;;;;;;5.80;1.97;;;;;;;15.15;56.17;99406.38;7018253;28;20274;-77
2023/01/05 09:21:43;;;;;;;6.43;2.50;;;;;;;15.47;55.56;99424.38;7028844;28;20210;-78
2023/01/05 09:25:05;;;;;;;7.63;2.40;;;;;;;15.48;55.63;99417.03;7030402;28;20234;-78
2023/01/05 09:28:27;;;;;;;9.57;3.20;;;;;;;15.84;53.88;99430.72;7024202;28;20241;-77
2023/01/05 09:31:48;;;;;;;6.57;2.87;;;;;;;15.40;54.53;99447.22;7030364;28;20612;-77
2023/01/05 09:35:11;;;;;;;7.03;2.87;;;;;;;15.45;52.45;99444.66;7031115;28;20313;-76
2023/01/05 09:38:33;;;;;;;9.17;2.53;;;;;;;15.07;52.84;99432.97;7032764;28;20211;-76
2023/01/05 09:41:57;;;;;;;8.73;2.50;;;;;;;15.25;52.41;99442.06;7031664;28;20206;-77
2023/01/05 09:45:24;;;;;;;6.50;2.63;;;;;;;15.34;51.96;99423.63;7040545;28;20240;-77
2023/01/05 09:48:48;;;;;;;13.50;2.87;;;;;;;14.99;51.88;99433.25;7039363;28;20280;-76
2023/01/05 09:52:11;;;;;;;11.27;3.53;;;;;;;15.22;51.25;99450.63;7022432;28;20294;-77
2023/01/05 09:55:33;;;;;;;11.10;2.80;;;;;;;15.28;51.61;99473.38;7014607;28;20310;-77
2023/01/05 09:59:03;;;;;;;7.40;2.37;;;;;;;15.48;50.56;99476.81;7008356;28;20660;-77
2023/01/05 10:02:33;;;;;;;7.83;2.67;;;;;;;15.24;50.73;99455.84;7029112;28;20225;-77
2023/01/05 10:05:55;;;;;;;10.20;3.10;;;;;;;15.42;50.34;99462.25;7027142;28;20223;-77
2023/01/05 10:09:20;;;;;;;6.60;3.00;;;;;;;15.51;50.08;99465.53;7030443;28;20201;-77
2023/01/05 10:16:23;;;;;;;13.13;3.40;;;;;;;16.23;48.82;99455.63;7030579;28;20245;-77
2023/01/05 10:19:45;;;;;;;10.73;3.10;;;;;;;15.41;50.34;99441.56;7034318;28;20218;-77
2023/01/05 10:23:15;;;;;;;9.73;3.17;;;;;;;15.84;50.04;99449.75;7058601;28;20671;-77
2023/01/05 10:26:43;;;;;;;10.83;3.37;;;;;;;15.45;50.93;99453.63;7026260;28;20290;-77
2023/01/05 10:30:13;;;;;;;10.37;3.07;;;;;;;15.72;50.55;99454.25;7028570;28;20679;-77
2023/01/05 10:33:45;;;;;;;13.00;3.07;;;;;;;15.24;50.76;99453.97;7003465;28;20300;-77
2023/01/05 10:37:30;;;;;;;10.70;3.40;;;;;;;15.27;51.48;99453.53;7026003;28;20222;-77
2023/01/05 10:40:59;;;;;;;11.40;4.10;;;;;;;15.75;50.21;99451.09;7006409;28;20340;-78
2023/01/05 10:44:50;;;;;;;14.33;3.97;;;;;;;15.59;50.87;99449.78;7003112;28;20673;-79
2023/01/05 10:48:13;;;;;;;13.77;3.47;;;;;;;16.03;49.86;99444.13;7014897;28;20661;-78
2023/01/05 10:51:35;;;;;;;7.03;2.90;;;;;;;15.52;51.04;99438.09;7025705;28;20291;-78
2023/01/05 10:54:59;;;;;;;15.80;7.87;;;;;;;15.95;49.83;99424.56;7019611;28;20261;-78
2023/01/05 10:58:22;;;;;;;16.93;6.23;;;;;;;15.45;49.72;99442.75;7030265;28;20644;-78
2023/01/05 11:01:47;;;;;;;16.03;5.60;;;;;;;15.79;49.40;99439.56;7048654;28;20220;-78
2023/01/05 11:05:24;;;;;;;24.63;10.80;;;;;;;15.99;49.40;99431.22;7037804;28;20266;-78
2023/01/05 11:08:46;;;;;;;21.47;5.37;;;;;;;16.02;49.13;99449.78;7025734;28;20194;-78
2023/01/05 11:12:16;;;;;;;16.90;4.20;;;;;;;15.73;49.75;99436.88;7023699;28;20207;-77
2023/01/05 11:15:41;;;;;;;25.33;10.80;;;;;;;16.21;48.90;99446.88;7019017;28;20226;-78
2023/01/05 11:19:06;;;;;;;8.17;3.20;;;;;;;15.51;48.54;99441.06;7028310;28;20259;-83
2023/01/05 11:22:30;;;;;;;13.80;5.13;;;;;;;15.69;49.04;99452.00;7048353;28;20204;-81
2023/01/05 11:25:52;;;;;;;11.37;4.67;;;;;;;16.22;49.35;99456.69;7035245;28;20307;-80
2023/01/05 11:29:15;;;;;;;11.63;4.50;;;;;;;16.09;48.86;99434.22;7018007;28;20267;-79
2023/01/05 11:32:37;;;;;;;10.90;4.03;;;;;;;16.19;47.84;99445.44;7009266;28;20676;-80
2023/01/05 11:36:00;;;;;;;12.27;4.83;;;;;;;15.41;48.52;99432.56;7038629;28;20310;-79
2023/01/05 11:39:28;;;;;;;8.33;3.30;;;;;;;15.84;47.91;99425.28;7036764;28;20889;-79
2023/01/05 11:42:49;;;;;;;6.60;2.77;;;;;;;16.05;47.12;99435.75;7035538;28;20663;-79
2023/01/05 11:46:13;;;;;;;17.40;3.83;;;;;;;16.51;46.94;99442.38;7038274;28;20369;-81
2023/01/05 11:49:35;;;;;;;10.33;2.90;;;;;;;16.36;47.72;99441.91;7036766;28;20204;-80
2023/01/05 11:52:59;;;;;;;11.50;3.27;;;;;;;15.91;48.03;99436.91;7051740;28;20769;-79
2023/01/05 11:56:22;;;;;;;10.33;3.07;;;;;;;15.89;47.72;99439.03;7034813;28;20292;-78
2023/01/05 11:59:45;;;;;;;8.73;3.27;;;;;;;15.88;48.05;99400.16;7035159;28;20907;-78
2023/01/05 12:03:22;;;;;;;6.50;2.87;;;;;;;16.59;47.10;99425.75;7036581;28;20294;-80
2023/01/05 12:06:53;;;;;;;8.03;2.90;;;;;;;16.11;47.48;99429.41;7037647;28;20259;-79
2023/01/05 12:10:30;;;;;;;11.67;3.43;;;;;;;16.20;47.51;99425.31;7037909;28;20195;-79
2023/01/05 12:14:03;;;;;;;8.27;2.93;;;;;;;15.63;47.63;99420.25;7037382;28;20311;-78
2023/01/05 12:17:30;;;;;;;9.17;3.83;;;;;;;15.78;47.67;99426.19;7031359;28;20302;-81
2023/01/05 12:20:56;;;;;;;12.43;4.80;;;;;;;15.98;47.38;99424.94;7043942;28;20233;-79
2023/01/05 12:24:50;;;;;;;17.17;8.33;;;;;;;15.76;47.94;99425.56;7033178;28;20231;-78
2023/01/05 12:28:26;;;;;;;7.03;3.20;;;;;;;16.07;47.68;99439.91;7023523;28;20465;-78
2023/01/05 12:32:10;;;;;;;11.70;3.43;;;;;;;16.30;47.62;99434.66;7034571;28;20889;-78
2023/01/05 12:35:44;;;;;;;9.73;4.07;;;;;;;16.23;47.20;99446.66;7016726;28;20294;-78
2023/01/05 12:39:24;;;;;;;11.37;3.40;;;;;;;16.40;47.08;99439.59;7006359;28;20204;-77
2023/01/05 12:42:57;;;;;;;14.33;3.40;;;;;;;16.38;46.88;99439.81;7025461;28;20211;-77
2023/01/05 12:46:29;;;;;;;9.87;3.60;;;;;;;16.55;46.81;99446.31;7032879;28;20622;-78
2023/01/05 12:49:53;;;;;;;15.07;4.57;;;;;;;16.62;46.38;99433.44;7027551;28;20236;-78
2023/01/05 12:53:22;;;;;;;12.03;3.50;;;;;;;16.31;47.13;99425.44;7033788;28;20279;-78
2023/01/05 12:56:47;;;;;;;12.60;6.30;;;;;;;16.35;47.25;99442.94;7027388;28;20796;-79
2023/01/05 13:00:12;;;;;;;12.57;3.37;;;;;;;16.28;47.25;99458.53;7032475;28;20620;-79
2023/01/05 13:03:39;;;;;;;10.10;3.73;;;;;;;15.80;47.93;99437.69;7028327;28;20298;-78
2023/01/05 13:07:02;;;;;;;10.20;3.20;;;;;;;16.02;47.86;99457.97;7032155;28;20218;-78
2023/01/05 13:10:26;;;;;;;10.87;3.30;;;;;;;15.93;47.85;99449.25;7024024;28;20202;-79
2023/01/05 13:13:51;;;;;;;10.47;3.20;;;;;;;15.83;47.76;99450.81;7031962;28;20367;-79
2023/01/05 13:17:17;;;;;;;9.67;3.97;;;;;;;15.78;48.09;99461.53;7027101;28;20319;-78
2023/01/05 13:20:43;;;;;;;16.00;5.20;;;;;;;15.94;47.79;99471.84;7027551;28;20341;-79
2023/01/05 13:24:08;;;;;;;19.53;6.47;;;;;;;16.44;47.00;99452.50;7025970;28;20259;-79
2023/01/05 13:27:31;;;;;;;9.73;3.83;;;;;;;16.40;47.26;99453.22;7026063;28;20227;-79
2023/01/05 13:31:36;;;;;;;13.27;4.53;;;;;;;16.11;47.40;99457.44;7029884;28;20294;-79
2023/01/05 13:35:18;;;;;;;9.43;3.37;;;;;;;16.03;47.96;99456.88;7024489;28;20286;-79
2023/01/05 13:39:15;;;;;;;14.53;4.23;;;;;;;16.08;48.07;99457.91;7025859;28;20764;-81
2023/01/05 13:42:52;;;;;;;8.83;3.80;;;;;;;16.52;47.40;99463.09;7025882;28;20214;-78
2023/01/05 13:46:26;;;;;;;14.03;3.97;;;;;;;16.31;47.90;99455.38;7030564;28;20360;-77
2023/01/05 13:50:19;;;;;;;12.57;4.37;;;;;;;16.39;48.13;99459.72;7030321;28;20203;-78
2023/01/05 13:53:41;;;;;;;10.50;3.70;;;;;;;16.50;47.33;99457.06;6999899;28;20313;-78
2023/01/05 13:57:07;;;;;;;16.70;4.27;;;;;;;16.56;47.07;99456.16;7020382;28;20230;-79
2023/01/05 14:00:33;;;;;;;10.17;3.73;;;;;;;16.33;47.46;99466.03;7017185;28;20197;-78
2023/01/05 14:03:56;;;;;;;11.80;3.70;;;;;;;16.01;48.11;99464.44;7011542;28;20286;-77
2023/01/05 14:07:18;;;;;;;10.23;4.27;;;;;;;16.04;48.00;99473.00;7030872;28;20236;-78
2023/01/05 14:10:40;;;;;;;9.30;3.40;;;;;;;16.10;48.01;99468.56;7023839;28;20260;-78
2023/01/05 14:14:03;;;;;;;8.93;3.03;;;;;;;16.22;48.14;99470.31;7031878;28;20367;-78
2023/01/05 14:17:56;;;;;;;11.13;3.47;;;;;;;16.02;47.78;99468.84;7032265;28;20233;-78
2023/01/05 14:21:52;;;;;;;13.70;3.93;;;;;;;16.26;47.93;99481.56;7032607;28;20205;-78
2023/01/05 14:25:52;;;;;;;12.23;4.23;;;;;;;15.93;48.62;99481.06;7030558;28;20220;-78
2023/01/05 14:30:08;;;;;;;8.87;3.37;;;;;;;16.13;47.90;99479.84;7031615;28;20201;-79
2023/01/05 14:33:31;;;;;;;9.90;4.07;;;;;;;16.26;47.18;99478.84;7031332;28;20229;-78
2023/01/05 14:37:05;;;;;;;13.53;4.30;;;;;;;16.09;47.40;99470.44;7030684;28;20310;-78
2023/01/05 14:40:38;;;;;;;9.57;3.43;;;;;;;16.12;47.43;99472.72;7030667;28;20226;-77
2023/01/05 14:44:02;;;;;;;11.10;3.87;;;;;;;16.02;47.93;99493.31;7014780;28;20285;-78
2023/01/05 14:47:34;;;;;;;8.03;3.33;;;;;;;15.48;48.87;99493.97;7031301;28;20325;-78
2023/01/05 14:51:12;;;;;;;13.60;3.73;;;;;;;16.10;47.78;99487.59;7030797;28;20251;-79
2023/01/05 14:54:52;;;;;;;9.93;3.40;;;;;;;15.83;48.53;99497.88;7021621;28;20645;-79
2023/01/05 14:58:15;;;;;;;11.27;3.40;;;;;;;15.87;48.29;99498.28;7029434;28;20332;-78
2023/01/05 15:01:39;;;;;;;11.50;3.13;;;;;;;15.63;49.04;99483.59;7029966;28;20278;-78
2023/01/05 15:05:05;;;;;;;13.20;3.20;;;;;;;15.82;48.43;99514.41;7030083;28;20228;-79
2023/01/05 15:08:47;;;;;;;11.00;3.37;;;;;;;16.11;47.79;99511.84;7030172;28;20193;-79
2023/01/05 15:12:44;;;;;;;16.20;3.57;;;;;;;16.10;47.94;99503.94;7057881;27;20550;-77
2023/01/05 15:16:10;;;;;;;11.70;4.90;;;;;;;15.75;47.94;99475.59;7035177;28;20657;-78
2023/01/05 15:19:44;;;;;;;16.10;4.03;;;;;;;15.92;48.08;99512.06;7045283;28;20201;-79
2023/01/05 15:23:25;;;;;;;8.83;3.80;;;;;;;15.75;47.97;99451.09;7041970;28;20211;-77
2023/01/05 15:27:02;;;;;;;14.60;3.67;;;;;;;16.03;47.70;99508.56;7031284;28;20209;-77
2023/01/05 15:30:55;;;;;;;11.10;4.10;;;;;;;15.82;47.96;99485.31;7030775;28;20238;-78
2023/01/05 15:34:21;;;;;;;12.83;3.90;;;;;;;16.09;47.73;99507.69;7043109;28;20563;-78
2023/01/05 15:37:45;;;;;;;10.83;3.77;;;;;;;16.11;47.98;99502.88;7038656;28;20208;-78
2023/01/05 15:41:10;;;;;;;11.63;3.93;;;;;;;16.42;47.10;99489.19;7027267;28;20352;-78
2023/01/05 15:44:35;;;;;;;10.67;3.07;;;;;;;16.67;46.69;99493.50;7035098;28;20216;-78
2023/01/05 15:48:01;;;;;;;11.40;3.70;;;;;;;16.80;46.27;99508.88;7018249;28;20195;-78
2023/01/05 15:51:25;;;;;;;13.90;4.37;;;;;;;16.75;46.76;99514.97;7025957;28;20230;-78
2023/01/05 15:54:58;;;;;;;10.60;3.83;;;;;;;16.03;47.24;99416.94;7019397;28;20199;-82
2023/01/05 15:58:21;;;;;;;13.47;4.57;;;;;;;16.42;47.13;99490.03;7026501;28;20241;-76
2023/01/05 16:01:43;;;;;;;27.80;12.63;;;;;;;16.66;46.81;99513.63;7031379;28;20221;-77
2023/01/05 16:05:11;;;;;;;23.93;9.03;;;;;;;16.71;46.49;99515.66;7027591;28;20212;-78
2023/01/05 16:08:35;;;;;;;10.80;5.10;;;;;;;16.46;47.43;99512.19;7028585;28;20208;-78
2023/01/05 16:12:00;;;;;;;11.97;3.97;;;;;;;16.53;47.14;99523.81;7026327;28;20234;-77
2023/01/05 16:15:22;;;;;;;10.70;3.93;;;;;;;16.28;47.21;99501.25;7028434;28;20213;-80
2023/01/05 16:18:48;;;;;;;16.50;5.23;;;;;;;15.69;47.65;99433.78;7029351;28;20257;-78
2023/01/05 16:22:17;;;;;;;10.07;4.00;;;;;;;16.32;47.24;99519.63;7018692;28;20211;-78
2023/01/05 16:25:42;;;;;;;23.00;11.00;;;;;;;15.60;47.90;99424.25;7009739;28;20206;-77
2023/01/05 16:29:19;;;;;;;15.27;6.00;;;;;;;16.24;47.49;99533.53;7009623;28;20226;-78
2023/01/05 16:32:41;;;;;;;26.00;8.93;;;;;;;16.25;46.80;99488.91;7009905;28;20200;-78
2023/01/05 16:36:08;;;;;;;30.40;13.73;;;;;;;16.28;46.75;99479.47;7009509;28;20353;-77
2023/01/05 16:39:36;;;;;;;20.23;9.13;;;;;;;16.50;46.77;99510.66;7000515;28;20210;-81